createdAt,value
2019-02-21T00:01:38.110Z,13.80
2019-02-21T00:04:06.752Z,15.45
2019-02-21T00:06:35.318Z,14.40
2019-02-21T00:09:05.062Z,12.68
2019-02-21T00:11:33.627Z,12.30
2019-02-21T00:14:02.551Z,12.37
2019-02-21T00:16:31.089Z,12.10
2019-02-21T00:18:59.679Z,12.33
2019-02-21T00:21:28.252Z,13.48
2019-02-21T00:23:57.074Z,11.93
2019-02-21T00:26:25.861Z,12.30
2019-02-21T00:28:54.655Z,11.45
2019-02-21T00:31:23.210Z,12.23
2019-02-21T00:33:52.027Z,11.73
2019-02-21T00:36:20.925Z,11.57
2019-02-21T00:38:50.023Z,11.08
2019-02-21T00:41:18.554Z,10.80
2019-02-21T00:43:47.146Z,11.40
2019-02-21T00:46:15.739Z,11.00
2019-02-21T00:48:44.331Z,11.12
2019-02-21T00:51:12.861Z,9.78
2019-02-21T00:53:41.496Z,10.75
2019-02-21T00:56:10.368Z,9.98
2019-02-21T00:58:38.962Z,10.65
2019-02-21T01:01:07.547Z,11.33
2019-02-21T01:03:36.464Z,11.03
2019-02-21T01:06:05.167Z,11.60
2019-02-21T01:08:33.995Z,10.85
2019-02-21T01:11:02.891Z,11.20
2019-02-21T01:13:31.479Z,9.65
2019-02-21T01:16:00.063Z,10.05
2019-02-21T01:18:28.700Z,8.73
2019-02-21T01:20:57.234Z,9.13
2019-02-21T01:23:26.055Z,7.95
2019-02-21T01:25:54.951Z,8.45
2019-02-21T01:28:23.834Z,9.00
2019-02-21T01:30:57.088Z,10.70
2019-02-21T01:33:23.074Z,10.95
2019-02-21T01:35:51.622Z,12.10
2019-02-21T01:38:20.186Z,11.10
2019-02-21T01:40:48.771Z,10.53
2019-02-21T01:43:17.378Z,10.05
2019-02-21T01:45:46.273Z,9.90
2019-02-21T01:48:14.831Z,9.65
2019-02-21T01:50:43.967Z,10.03
2019-02-21T01:53:13.069Z,9.50
2019-02-21T01:55:41.649Z,10.05
2019-02-21T01:58:10.839Z,9.85
2019-02-21T02:00:39.383Z,9.28
2019-02-21T02:03:07.986Z,9.28
2019-02-21T02:05:36.899Z,9.30
2019-02-21T02:08:05.766Z,9.93
2019-02-21T02:10:34.352Z,9.75
2019-02-21T02:13:03.267Z,9.83
2019-02-21T02:15:32.295Z,9.85
2019-02-21T02:18:01.254Z,10.13
2019-02-21T02:20:30.106Z,9.68
2019-02-21T02:22:58.698Z,10.43
2019-02-21T02:25:27.922Z,10.45
2019-02-21T02:27:56.480Z,10.15
2019-02-21T02:30:25.447Z,10.48
2019-02-21T02:32:54.714Z,9.83
2019-02-21T02:35:23.259Z,10.65
2019-02-21T02:37:52.190Z,11.43
2019-02-21T02:40:20.747Z,11.00
2019-02-21T02:42:50.065Z,9.88
2019-02-21T02:45:18.954Z,11.15
2019-02-21T02:47:47.503Z,11.78
2019-02-21T02:50:28.691Z,12.00
2019-02-21T02:55:53.516Z,9.60
2019-02-21T03:01:34.375Z,10.03
2019-02-21T03:04:09.970Z,10.48
2019-02-21T03:45:55.793Z,11.80
2019-02-21T03:48:36.446Z,11.33
2019-02-21T03:51:17.517Z,10.13
2019-02-21T03:53:58.587Z,11.68
2019-02-21T03:56:39.275Z,11.75
2019-02-21T03:59:20.288Z,11.20
2019-02-21T04:02:05.184Z,11.85
2019-02-21T04:04:43.774Z,12.00
2019-02-21T04:07:24.747Z,11.33
2019-02-21T04:10:05.891Z,11.38
2019-02-21T04:12:46.891Z,11.25
2019-02-21T04:15:28.315Z,10.78
2019-02-21T04:18:08.631Z,11.78
2019-02-21T04:20:49.411Z,12.07
2019-02-21T04:23:29.896Z,11.48
2019-02-21T04:26:11.378Z,12.43
2019-02-21T04:28:52.464Z,11.50
2019-02-21T04:31:33.475Z,12.05
2019-02-21T04:34:12.438Z,12.88
2019-02-21T04:37:00.524Z,12.03
2019-02-21T04:39:48.597Z,12.47
2019-02-21T04:42:36.668Z,13.95
2019-02-21T04:45:24.498Z,13.18
2019-02-21T04:48:12.387Z,11.83
2019-02-21T04:50:54.461Z,12.28
2019-02-21T04:53:35.384Z,11.60
2019-02-21T04:56:16.364Z,12.47
2019-02-21T04:58:57.061Z,12.07
2019-02-21T05:01:40.153Z,13.72
2019-02-21T05:04:20.545Z,12.10
2019-02-21T05:07:01.427Z,12.33
2019-02-21T05:18:20.990Z,12.90
2019-02-21T05:21:02.194Z,12.60
2019-02-21T05:23:42.717Z,12.33
2019-02-21T05:26:29.550Z,11.45
2019-02-21T05:29:12.211Z,12.68
2019-02-21T05:32:14.719Z,13.25
2019-02-21T05:35:01.610Z,12.95
2019-02-21T05:38:01.580Z,12.30
2019-02-21T05:41:04.034Z,12.68
2019-02-21T05:43:56.255Z,12.85
2019-02-21T05:47:02.565Z,13.08
2019-02-21T05:49:55.521Z,12.60
2019-02-21T05:52:49.034Z,13.18
2019-02-21T05:55:50.197Z,13.25
2019-02-21T05:58:36.507Z,13.78
2019-02-21T06:01:32.047Z,13.40
2019-02-21T06:04:38.077Z,13.18
2019-02-21T06:10:47.512Z,13.10
2019-02-21T06:16:55.252Z,14.05
2019-02-21T06:19:58.459Z,13.35
2019-02-21T06:22:45.937Z,13.58
2019-02-21T06:25:31.644Z,13.85
2019-02-21T06:31:25.734Z,12.78
2019-02-21T06:34:06.923Z,13.62
2019-02-21T06:36:48.628Z,13.28
2019-02-21T06:39:29.570Z,12.98
2019-02-21T06:42:10.351Z,13.15
2019-02-21T06:47:33.721Z,13.35
2019-02-21T06:53:03.851Z,13.18
2019-02-21T07:01:25.792Z,12.43
2019-02-21T07:04:02.296Z,12.43
2019-02-21T07:06:42.660Z,13.05
2019-02-21T07:31:33.535Z,14.30
2019-02-21T07:39:57.343Z,8.78
2019-02-21T07:42:38.176Z,8.50
2019-02-21T07:45:19.235Z,10.13
2019-02-21T07:48:00.012Z,11.05
2019-02-21T07:50:40.603Z,12.25
2019-02-21T07:53:21.340Z,11.57
2019-02-21T07:56:02.545Z,12.80
2019-02-21T07:58:43.576Z,16.50
2019-02-21T08:01:22.471Z,17.98
2019-02-21T08:07:04.226Z,20.00
2019-02-21T08:09:52.319Z,20.57
2019-02-21T08:12:40.665Z,21.00
2019-02-21T08:15:30.223Z,19.75
2019-02-21T08:18:18.076Z,20.95
2019-02-21T08:21:05.919Z,21.27
2019-02-21T08:23:53.754Z,22.32
2019-02-21T08:26:42.073Z,20.92
2019-02-21T08:29:30.160Z,21.77
2019-02-21T08:38:21.482Z,21.87
2019-02-21T08:41:09.333Z,20.48
2019-02-21T08:43:57.755Z,20.17
2019-02-21T08:46:45.839Z,20.37
2019-02-21T08:49:33.679Z,21.48
2019-02-21T08:52:14.855Z,22.07
2019-02-21T08:55:00.056Z,21.25
2019-02-21T08:57:25.964Z,21.30
2019-02-21T08:59:54.520Z,21.42
2019-02-21T09:02:23.499Z,20.97
2019-02-21T09:04:52.348Z,22.25
2019-02-21T09:07:20.906Z,21.60
2019-02-21T09:09:49.802Z,21.42
2019-02-21T09:12:18.710Z,21.73
2019-02-21T09:14:47.486Z,21.17
2019-02-21T09:17:16.047Z,20.80
2019-02-21T09:19:44.966Z,22.07
2019-02-21T09:22:13.870Z,21.12
2019-02-21T09:24:42.769Z,22.90
2019-02-21T09:27:11.649Z,21.42
2019-02-21T09:29:40.427Z,21.45
2019-02-21T09:32:09.220Z,20.08
2019-02-21T09:34:38.002Z,22.05
2019-02-21T09:37:06.871Z,21.40
2019-02-21T09:39:36.086Z,20.43
2019-02-21T09:42:05.222Z,21.23
2019-02-21T09:44:35.913Z,21.25
2019-02-21T09:47:04.723Z,22.30
2019-02-21T09:49:33.314Z,20.85
2019-02-21T09:52:02.198Z,21.60
2019-02-21T09:54:31.500Z,21.20
2019-02-21T09:57:00.047Z,20.62
2019-02-21T09:59:28.974Z,19.82
2019-02-21T10:01:58.063Z,21.05
2019-02-21T10:04:32.155Z,21.70
2019-02-21T10:06:58.013Z,19.87
2019-02-21T10:09:26.558Z,20.17
2019-02-21T10:11:55.118Z,20.82
2019-02-21T10:14:23.740Z,19.95
2019-02-21T10:16:52.295Z,21.02
2019-02-21T10:19:20.890Z,20.77
2019-02-21T10:21:49.450Z,20.70
2019-02-21T10:24:18.706Z,22.00
2019-02-21T10:26:47.483Z,21.52
2019-02-21T10:29:16.384Z,21.65
2019-02-21T10:31:45.264Z,21.80
2019-02-21T10:34:13.815Z,20.32
2019-02-21T10:36:42.430Z,21.62
2019-02-21T10:39:11.268Z,22.87
2019-02-21T10:41:40.212Z,21.68
2019-02-21T10:44:09.112Z,21.90
2019-02-21T10:46:37.659Z,20.92
2019-02-21T10:49:06.591Z,22.60
2019-02-21T10:51:35.780Z,22.48
2019-02-21T10:54:04.339Z,22.02
2019-02-21T10:56:33.006Z,22.70
2019-02-21T10:59:02.242Z,21.57
2019-02-21T11:01:31.090Z,22.22
2019-02-21T11:04:00.024Z,22.42
2019-02-21T11:06:28.583Z,22.62
2019-02-21T11:08:57.406Z,23.20
2019-02-21T11:11:25.986Z,23.42
2019-02-21T11:13:54.782Z,22.77
2019-02-21T11:16:23.643Z,22.65
2019-02-21T11:18:52.215Z,22.75
2019-02-21T11:21:20.839Z,21.97
2019-02-21T11:23:49.381Z,22.93
2019-02-21T11:26:17.975Z,23.83
2019-02-21T11:28:47.365Z,22.55
2019-02-21T11:31:16.050Z,23.57
2019-02-21T11:33:44.634Z,22.37
2019-02-21T11:36:13.230Z,22.60
2019-02-21T11:38:42.219Z,22.17
2019-02-21T11:41:11.121Z,22.50
2019-02-21T11:43:40.344Z,23.00
2019-02-21T11:46:08.955Z,23.57
2019-02-21T11:48:37.571Z,22.87
2019-02-21T11:51:07.459Z,23.15
2019-02-21T11:53:38.171Z,22.58
2019-02-21T11:56:06.611Z,22.15
2019-02-21T11:58:35.418Z,23.35
2019-02-21T12:01:04.049Z,22.52
2019-02-21T12:03:32.677Z,24.37
2019-02-21T12:06:01.256Z,23.70
2019-02-21T12:08:29.875Z,21.62
2019-02-21T12:10:58.423Z,23.67
2019-02-21T12:13:26.986Z,24.57
2019-02-21T12:15:56.022Z,22.07
2019-02-21T12:18:24.915Z,24.30
2019-02-21T12:20:53.476Z,22.82
2019-02-21T12:23:22.056Z,22.75
2019-02-21T12:25:51.199Z,24.37
2019-02-21T12:28:19.977Z,23.05
2019-02-21T12:30:48.515Z,22.62
2019-02-21T12:33:17.101Z,23.02
2019-02-21T12:35:46.027Z,22.27
2019-02-21T12:38:15.233Z,23.12
2019-02-21T12:40:43.821Z,23.22
2019-02-21T12:43:12.605Z,23.30
2019-02-21T12:45:41.194Z,23.90
2019-02-21T12:48:09.993Z,22.48
2019-02-21T12:50:44.234Z,23.20
2019-02-21T12:53:09.174Z,22.62
2019-02-21T12:55:37.740Z,22.82
2019-02-21T12:58:06.327Z,23.25
2019-02-21T13:00:36.650Z,24.32
2019-02-21T13:03:05.358Z,23.00
2019-02-21T13:05:41.022Z,24.75
2019-02-21T13:08:04.407Z,23.38
2019-02-21T13:10:34.946Z,24.30
2019-02-21T13:13:03.778Z,23.83
2019-02-21T13:15:32.586Z,23.45
2019-02-21T13:18:01.445Z,23.65
2019-02-21T13:20:30.038Z,24.85
2019-02-21T13:22:58.612Z,25.20
2019-02-21T13:25:27.710Z,23.38
2019-02-21T13:27:56.306Z,24.10
2019-02-21T13:30:24.892Z,23.47
2019-02-21T13:32:53.704Z,23.45
2019-02-21T13:35:22.899Z,22.35
2019-02-21T13:37:51.451Z,22.80
2019-02-21T13:40:21.333Z,22.22
2019-02-21T13:42:50.803Z,22.37
2019-02-21T13:45:19.366Z,21.90
2019-02-21T13:47:47.931Z,22.85
2019-02-21T13:50:16.682Z,22.90
2019-02-21T13:52:45.640Z,22.93
2019-02-21T13:55:14.543Z,22.27
2019-02-21T13:57:43.103Z,22.17
2019-02-21T14:00:16.687Z,22.85
2019-02-21T14:02:45.517Z,23.15
2019-02-21T14:05:14.215Z,22.52
2019-02-21T14:07:43.295Z,23.18
2019-02-21T14:10:11.883Z,21.80
2019-02-21T14:12:40.450Z,22.73
2019-02-21T14:15:20.414Z,23.42
2019-02-21T14:17:48.982Z,23.73
2019-02-21T14:20:18.202Z,23.00
2019-02-21T14:22:46.987Z,22.42
2019-02-21T14:25:15.544Z,22.73
2019-02-21T14:27:44.116Z,22.35
2019-02-21T14:30:15.149Z,23.38
2019-02-21T14:32:43.745Z,23.00
2019-02-21T14:35:13.742Z,23.07
2019-02-21T14:37:42.358Z,22.07
2019-02-21T14:40:11.470Z,22.73
2019-02-21T14:42:40.279Z,23.18
2019-02-21T14:45:12.613Z,23.40
2019-02-21T14:47:41.975Z,24.00
2019-02-21T14:50:10.964Z,23.22
2019-02-21T14:52:39.667Z,22.70
2019-02-21T14:55:09.751Z,23.18
2019-02-21T14:57:41.219Z,23.20
2019-02-21T15:00:12.090Z,23.02
2019-02-21T15:02:40.718Z,23.65
2019-02-21T15:05:10.203Z,23.32
2019-02-21T15:07:39.356Z,25.30
2019-02-21T15:10:08.151Z,23.70
2019-02-21T15:12:36.686Z,24.15
2019-02-21T15:15:06.359Z,23.62
2019-02-21T15:17:35.803Z,24.23
2019-02-21T15:20:04.924Z,23.85
2019-02-21T15:22:33.827Z,24.32
2019-02-21T15:25:02.397Z,24.20
2019-02-21T15:27:31.182Z,24.07
2019-02-21T15:29:59.979Z,24.63
2019-02-21T15:32:28.843Z,24.85
2019-02-21T15:34:57.814Z,25.10
2019-02-21T15:37:26.758Z,25.40
2019-02-21T15:39:55.947Z,25.35
2019-02-21T15:42:24.538Z,23.50
2019-02-21T15:44:53.332Z,24.30
2019-02-21T15:47:22.366Z,23.60
2019-02-21T15:49:51.619Z,23.50
2019-02-21T15:52:22.496Z,23.67
2019-02-21T15:54:51.455Z,24.60
2019-02-21T15:57:20.008Z,23.38
2019-02-21T15:59:48.608Z,24.05
2019-02-21T16:02:17.566Z,24.30
2019-02-21T16:04:46.509Z,25.05
2019-02-21T16:07:15.080Z,24.77
2019-02-21T16:09:43.643Z,23.83
2019-02-21T16:12:12.648Z,24.37
2019-02-21T16:14:41.735Z,24.30
2019-02-21T16:17:10.968Z,24.52
2019-02-21T16:19:39.559Z,23.02
2019-02-21T16:22:08.238Z,23.73
2019-02-21T16:24:37.935Z,23.22
2019-02-21T16:27:07.043Z,24.20
2019-02-21T16:29:35.594Z,23.40
2019-02-21T16:32:05.127Z,25.17
2019-02-21T16:34:34.027Z,24.87
2019-02-21T16:37:02.815Z,25.27
2019-02-21T16:39:31.370Z,24.35
2019-02-21T16:41:59.935Z,24.10
2019-02-21T16:44:28.539Z,23.60
2019-02-21T16:46:57.458Z,24.43
2019-02-21T16:49:26.342Z,23.80
2019-02-21T16:51:54.898Z,24.47
2019-02-21T16:54:23.816Z,23.83
2019-02-21T16:56:52.364Z,24.67
2019-02-21T16:59:20.891Z,23.75
2019-02-21T17:01:49.812Z,24.75
2019-02-21T17:04:18.454Z,26.07
2019-02-21T17:06:47.773Z,25.30
2019-02-21T17:09:16.655Z,27.67
2019-02-21T17:11:45.807Z,25.68
2019-02-21T17:14:14.409Z,26.48
2019-02-21T17:16:42.976Z,29.40
2019-02-21T17:19:12.151Z,27.98
2019-02-21T17:21:41.094Z,27.67
2019-02-21T17:24:09.675Z,30.37
2019-02-21T17:26:38.767Z,28.75
2019-02-21T17:29:07.342Z,29.65
2019-02-21T17:31:37.323Z,30.43
2019-02-21T17:34:06.374Z,29.32
2019-02-21T17:36:35.249Z,29.70
2019-02-21T17:39:04.274Z,31.33
2019-02-21T17:41:33.360Z,31.20
2019-02-21T17:44:06.459Z,29.82
2019-02-21T17:46:35.826Z,31.65
2019-02-21T17:49:04.407Z,32.60
2019-02-21T17:51:33.007Z,29.85
2019-02-21T17:54:01.569Z,31.97
2019-02-21T17:56:30.563Z,10.82
2019-02-21T17:58:59.515Z,29.32
2019-02-21T18:01:28.155Z,29.00
2019-02-21T18:03:56.721Z,30.68
2019-02-21T18:06:25.322Z,29.50
2019-02-21T18:08:55.110Z,29.98
2019-02-21T18:11:23.930Z,32.03
2019-02-21T18:13:52.493Z,29.27
2019-02-21T18:16:21.082Z,29.80
2019-02-21T18:18:49.899Z,30.75
2019-02-21T18:21:18.693Z,30.97
2019-02-21T18:23:47.254Z,32.65
2019-02-21T18:26:18.043Z,31.68
2019-02-21T18:28:46.699Z,34.67
2019-02-21T18:31:15.590Z,34.45
2019-02-21T18:33:44.147Z,33.23
2019-02-21T18:36:13.088Z,33.20
2019-02-21T18:38:41.743Z,33.40
2019-02-21T18:41:10.355Z,33.28
2019-02-21T18:43:39.054Z,33.92
2019-02-21T18:46:07.787Z,34.75
2019-02-21T18:48:36.359Z,34.20
2019-02-21T18:51:04.951Z,34.70
2019-02-21T18:53:33.583Z,34.03
2019-02-21T18:56:02.548Z,33.73
2019-02-21T18:58:31.176Z,35.38
2019-02-21T19:00:59.776Z,35.58
2019-02-21T19:03:28.714Z,34.30
2019-02-21T19:05:57.259Z,34.65
2019-02-21T19:08:25.874Z,34.25
2019-02-21T19:10:54.479Z,35.00
2019-02-21T19:13:23.174Z,36.03
2019-02-21T19:15:52.126Z,33.88
2019-02-21T19:18:20.719Z,32.05
2019-02-21T19:20:49.277Z,34.15
2019-02-21T19:23:17.867Z,33.73
2019-02-21T19:25:46.477Z,33.92
2019-02-21T19:28:15.367Z,33.55
2019-02-21T19:30:51.013Z,33.28
2019-02-21T19:33:20.119Z,33.70
2019-02-21T19:35:49.044Z,35.25
2019-02-21T19:38:17.655Z,36.45
2019-02-21T19:40:46.276Z,33.92
2019-02-21T19:43:15.169Z,36.70
2019-02-21T19:45:44.042Z,34.88
2019-02-21T19:48:12.960Z,36.17
2019-02-21T19:50:41.509Z,34.98
2019-02-21T19:53:10.154Z,36.50
2019-02-21T19:55:39.005Z,34.53
2019-02-21T19:58:07.556Z,35.10
2019-02-21T20:00:37.270Z,33.78
2019-02-21T20:03:05.848Z,35.13
2019-02-21T20:05:34.675Z,34.15
2019-02-21T20:08:08.823Z,33.58
2019-02-21T20:10:34.608Z,33.95
2019-02-21T20:13:05.580Z,32.63
2019-02-21T20:15:34.203Z,35.03
2019-02-21T20:18:02.776Z,32.85
2019-02-21T20:20:32.194Z,35.28
2019-02-21T20:23:00.772Z,34.38
2019-02-21T20:25:29.695Z,35.63
2019-02-21T20:27:58.239Z,37.55
2019-02-21T20:30:26.836Z,36.33
2019-02-21T20:32:55.403Z,37.42
2019-02-21T20:35:24.030Z,36.40
2019-02-21T20:37:52.571Z,36.75
2019-02-21T20:40:21.179Z,35.58
2019-02-21T20:42:49.743Z,36.45
2019-02-21T20:45:18.626Z,35.52
2019-02-21T20:47:47.222Z,34.80
2019-02-21T20:50:15.799Z,37.20
2019-02-21T20:52:44.405Z,34.43
2019-02-21T20:55:13.338Z,34.03
2019-02-21T20:58:01.442Z,34.58
2019-02-21T21:00:49.300Z,35.88
2019-02-21T21:03:37.360Z,34.38
2019-02-21T21:06:25.219Z,35.13
2019-02-21T21:09:13.976Z,33.83
2019-02-21T21:12:02.073Z,35.40
2019-02-21T21:14:49.906Z,36.10
2019-02-21T21:17:37.758Z,34.45
2019-02-21T21:20:26.124Z,33.85
2019-02-21T21:23:15.524Z,34.67
2019-02-21T21:26:03.358Z,34.45
2019-02-21T21:28:51.202Z,33.23
2019-02-21T21:31:39.039Z,34.95
2019-02-21T21:34:27.134Z,34.55
2019-02-21T21:40:09.491Z,33.33
2019-02-21T21:42:57.656Z,34.35
2019-02-21T21:48:36.296Z,34.20
2019-02-21T21:51:27.359Z,36.08
2019-02-21T21:54:15.206Z,36.05
2019-02-21T21:57:03.352Z,35.08
2019-02-21T21:59:51.435Z,35.73
2019-02-21T22:02:39.519Z,36.08
2019-02-21T22:05:27.683Z,35.17
2019-02-21T22:08:15.771Z,34.50
2019-02-21T22:11:03.611Z,35.48
2019-02-21T22:13:51.695Z,33.58
2019-02-21T22:16:39.763Z,34.08
2019-02-21T22:22:20.186Z,33.30
2019-02-21T22:25:08.404Z,34.35
2019-02-21T22:27:56.471Z,32.78
2019-02-21T22:30:44.327Z,33.48
2019-02-21T22:33:32.182Z,34.15
2019-02-21T22:36:20.037Z,33.65
2019-02-21T22:39:15.865Z,34.65
2019-02-21T22:41:57.687Z,34.48
2019-02-21T22:44:45.535Z,34.43
2019-02-21T22:47:33.627Z,33.83
2019-02-21T22:50:21.479Z,34.43
2019-02-21T22:53:01.713Z,35.17
2019-02-21T22:55:42.667Z,35.55
2019-02-21T22:58:23.291Z,33.92
2019-02-21T23:01:07.407Z,33.90
2019-02-21T23:03:48.151Z,33.40
2019-02-21T23:06:28.533Z,34.67
2019-02-21T23:09:14.706Z,33.10
2019-02-21T23:11:56.175Z,35.03
2019-02-21T23:14:36.479Z,33.28
2019-02-21T23:17:16.847Z,33.18
2019-02-21T23:25:33.095Z,34.53
2019-02-21T23:36:45.631Z,32.78
2019-02-21T23:45:12.944Z,30.30
2019-02-21T23:50:50.203Z,29.05
2019-02-21T23:53:31.108Z,28.27
2019-02-21T23:56:12.522Z,29.05
2019-02-21T23:58:51.499Z,30.37
